This is the latest recevied weather packets stored in our database for station/object N3AVN. If no packets are shown the sender has not sent any weather packets the latest 1 day(s).
| Time | Temp. | Humidity | Pressure | Rain* | Wind** | Luminosity | Snow |
|---|---|---|---|---|---|---|---|
| 1778006834 | 26.67° C | 45% | 1005.6 hPa | 0 mm | 2.24 m/s, 98° | 598 W/m² | - |
| 1778006532 | 26.11° C | 46% | 1005.6 hPa | 0 mm | 1.34 m/s, 208° | 640 W/m² | - |
| 1778006228 | 27.22° C | 44% | 1005.9 hPa | 0 mm | 3.13 m/s, 92° | 588 W/m² | - |
| 1778005926 | 26.67° C | 45% | 1005.7 hPa | 0 mm | 1.34 m/s, 180° | 674 W/m² | - |
| 1778005622 | 26.67° C | 45% | 1005.8 hPa | 0 mm | 2.68 m/s, 193° | 623 W/m² | - |
| 1778005319 | 26.67° C | 44% | 1005.8 hPa | 0 mm | 1.34 m/s, 94° | 659 W/m² | - |
| 1778005015 | 27.78° C | 44% | 1005.7 hPa | 0 mm | 1.34 m/s, 163° | 639 W/m² | - |
| 1778004713 | 26.67° C | 45% | 1005.7 hPa | 0 mm | 3.13 m/s, 171° | 676 W/m² | - |
| 1778004409 | 27.22° C | 45% | 1006 hPa | 0 mm | 1.79 m/s, 233° | 705 W/m² | - |
| 1778004107 | 26.67° C | 46% | 1005.8 hPa | 0 mm | 0.89 m/s, 140° | 637 W/m² | - |
| 1778003802 | 26.67° C | 46% | 1005.9 hPa | 0 mm | 4.92 m/s, 137° | 438 W/m² | - |
| 1778003499 | 27.78° C | 45% | 1005.9 hPa | 0 mm | 0.89 m/s, 85° | 624 W/m² | - |
| 1778003196 | 26.67° C | 45% | 1006.1 hPa | 0 mm | 1.79 m/s, 81° | 527 W/m² | - |
| 1778002892 | 26.67° C | 45% | 1006.3 hPa | 0 mm | 0.89 m/s, 323° | 620 W/m² | - |
| 1778002589 | 26.67° C | 46% | 1006.1 hPa | 0 mm | 1.79 m/s, 166° | 675 W/m² | - |
| 1778002285 | 26.67° C | 46% | 1006.3 hPa | 0 mm | 1.34 m/s, 55° | 670 W/m² | - |
| 1778001983 | 26.67° C | 46% | 1006.2 hPa | 0 mm | 2.24 m/s, 143° | 705 W/m² | - |
| 1778001680 | 26.67° C | 48% | 1006.4 hPa | 0 mm | 0 m/s | 714 W/m² | - |
| 1778001375 | 26.67° C | 46% | 1006.5 hPa | 0 mm | 0.89 m/s, 233° | 708 W/m² | - |
| 1778001072 | 26.67° C | 46% | 1006.4 hPa | 0 mm | 4.92 m/s, 240° | 640 W/m² | - |
| 1778000770 | 26.11° C | 46% | 1006.6 hPa | 0 mm | 1.34 m/s, 305° | 645 W/m² | - |
| 1778000466 | 26.11° C | 48% | 1006.5 hPa | 0 mm | 0.89 m/s, 71° | 716 W/m² | - |
| 1778000161 | 25.56° C | 49% | 1006.6 hPa | 0 mm | 0.89 m/s, 11° | 694 W/m² | - |
| 1777999857 | 25.56° C | 49% | 1006.7 hPa | 0 mm | 2.68 m/s, 117° | 678 W/m² | - |
| 1777999553 | 25.56° C | 49% | 1007.1 hPa | 0 mm | 1.34 m/s, 22° | 706 W/m² | - |
* Rain latest hour (hover to see other rain measurements)
** Current wind speed in m/s (hover to see current wind gust speed)